sensor_id;sensor_type;location;lat;lon;timestamp;pressure;altitude;pressure_sealevel;temperature;humidity
3668;BME280;24099;47.102;15.440;2022-07-29T00:02:07;97007.50;;;18.40;100.00
3668;BME280;24099;47.102;15.440;2022-07-29T00:04:35;97006.09;;;18.49;100.00
3668;BME280;24099;47.102;15.440;2022-07-29T00:07:04;97001.69;;;18.43;100.00
3668;BME280;24099;47.102;15.440;2022-07-29T00:09:32;97000.53;;;18.51;100.00
3668;BME280;24099;47.102;15.440;2022-07-29T00:12:01;97001.31;;;18.63;100.00
3668;BME280;24099;47.102;15.440;2022-07-29T00:14:29;97004.47;;;18.48;100.00
3668;BME280;24099;47.102;15.440;2022-07-29T00:16:56;96996.59;;;18.53;100.00
3668;BME280;24099;47.102;15.440;2022-07-29T00:19:25;97006.78;;;18.56;100.00
3668;BME280;24099;47.102;15.440;2022-07-29T00:21:53;97008.50;;;18.63;100.00
3668;BME280;24099;47.102;15.440;2022-07-29T00:24:20;97002.91;;;18.36;100.00
3668;BME280;24099;47.102;15.440;2022-07-29T00:26:48;97004.75;;;18.35;100.00
3668;BME280;24099;47.102;15.440;2022-07-29T00:29:15;97003.31;;;18.56;100.00
3668;BME280;24099;47.102;15.440;2022-07-29T00:31:43;97003.75;;;18.65;100.00
3668;BME280;24099;47.102;15.440;2022-07-29T00:34:10;97001.22;;;18.46;100.00
3668;BME280;24099;47.102;15.440;2022-07-29T00:36:53;97002.53;;;18.32;100.00
3668;BME280;24099;47.102;15.440;2022-07-29T00:39:21;97004.59;;;18.53;100.00
3668;BME280;24099;47.102;15.440;2022-07-29T00:41:48;96998.91;;;18.50;100.00
3668;BME280;24099;47.102;15.440;2022-07-29T00:44:16;97003.78;;;18.41;100.00
3668;BME280;24099;47.102;15.440;2022-07-29T00:46:44;96994.50;;;18.44;100.00
3668;BME280;24099;47.102;15.440;2022-07-29T00:49:11;96996.38;;;18.43;100.00
3668;BME280;24099;47.102;15.440;2022-07-29T00:51:40;96992.44;;;18.46;100.00
3668;BME280;24099;47.102;15.440;2022-07-29T00:54:09;96994.50;;;18.55;100.00
3668;BME280;24099;47.102;15.440;2022-07-29T00:56:36;96994.84;;;18.47;100.00
3668;BME280;24099;47.102;15.440;2022-07-29T00:59:04;96998.91;;;18.50;100.00
3668;BME280;24099;47.102;15.440;2022-07-29T01:01:32;96987.78;;;18.41;100.00
3668;BME280;24099;47.102;15.440;2022-07-29T01:03:59;96988.28;;;18.38;100.00
3668;BME280;24099;47.102;15.440;2022-07-29T01:06:27;96989.28;;;18.61;100.00
3668;BME280;24099;47.102;15.440;2022-07-29T01:08:55;96989.34;;;18.37;100.00
3668;BME280;24099;47.102;15.440;2022-07-29T01:11:25;96985.97;;;18.30;100.00
3668;BME280;24099;47.102;15.440;2022-07-29T01:13:53;96985.94;;;18.42;100.00
3668;BME280;24099;47.102;15.440;2022-07-29T01:16:24;96983.63;;;18.45;100.00
3668;BME280;24099;47.102;15.440;2022-07-29T01:19:00;96980.84;;;18.40;100.00
3668;BME280;24099;47.102;15.440;2022-07-29T01:21:50;96984.19;;;18.47;100.00
3668;BME280;24099;47.102;15.440;2022-07-29T01:24:42;96983.03;;;18.43;100.00
3668;BME280;24099;47.102;15.440;2022-07-29T01:27:38;96982.16;;;18.38;100.00
3668;BME280;24099;47.102;15.440;2022-07-29T01:30:10;96986.88;;;18.47;100.00
3668;BME280;24099;47.102;15.440;2022-07-29T01:32:39;96984.47;;;18.34;100.00
3668;BME280;24099;47.102;15.440;2022-07-29T01:35:14;96985.75;;;18.32;100.00
3668;BME280;24099;47.102;15.440;2022-07-29T01:37:48;96984.47;;;18.34;100.00
3668;BME280;24099;47.102;15.440;2022-07-29T01:40:24;96990.97;;;18.38;100.00
3668;BME280;24099;47.102;15.440;2022-07-29T01:42:57;96981.69;;;18.29;100.00
3668;BME280;24099;47.102;15.440;2022-07-29T01:45:30;96979.03;;;18.29;100.00
3668;BME280;24099;47.102;15.440;2022-07-29T01:48:06;96971.28;;;18.28;100.00
3668;BME280;24099;47.102;15.440;2022-07-29T01:50:45;96979.25;;;18.28;100.00
3668;BME280;24099;47.102;15.440;2022-07-29T01:53:16;96967.13;;;18.08;100.00
3668;BME280;24099;47.102;15.440;2022-07-29T01:55:45;96967.03;;;18.15;100.00
3668;BME280;24099;47.102;15.440;2022-07-29T01:58:14;96972.59;;;18.13;100.00
3668;BME280;24099;47.102;15.440;2022-07-29T02:00:47;96969.00;;;18.08;100.00
3668;BME280;24099;47.102;15.440;2022-07-29T02:03:17;96966.78;;;18.05;100.00
3668;BME280;24099;47.102;15.440;2022-07-29T02:05:47;96958.22;;;18.03;100.00
3668;BME280;24099;47.102;15.440;2022-07-29T02:08:17;96963.09;;;18.06;100.00
3668;BME280;24099;47.102;15.440;2022-07-29T02:10:47;96962.41;;;17.99;100.00
3668;BME280;24099;47.102;15.440;2022-07-29T02:13:17;96959.66;;;17.94;100.00
3668;BME280;24099;47.102;15.440;2022-07-29T02:15:48;96963.34;;;17.93;100.00
3668;BME280;24099;47.102;15.440;2022-07-29T02:18:19;96963.56;;;18.03;100.00
3668;BME280;24099;47.102;15.440;2022-07-29T02:20:51;96966.13;;;17.98;100.00
3668;BME280;24099;47.102;15.440;2022-07-29T02:23:22;96956.50;;;17.85;100.00
3668;BME280;24099;47.102;15.440;2022-07-29T02:25:55;96960.22;;;17.84;100.00
3668;BME280;24099;47.102;15.440;2022-07-29T02:28:26;96952.47;;;17.82;100.00
3668;BME280;24099;47.102;15.440;2022-07-29T02:31:00;96953.28;;;17.83;100.00
3668;BME280;24099;47.102;15.440;2022-07-29T02:33:30;96952.22;;;17.84;100.00
3668;BME280;24099;47.102;15.440;2022-07-29T02:35:59;96955.13;;;17.82;100.00
3668;BME280;24099;47.102;15.440;2022-07-29T02:38:29;96954.31;;;17.70;100.00
3668;BME280;24099;47.102;15.440;2022-07-29T02:41:20;96949.22;;;17.57;100.00
3668;BME280;24099;47.102;15.440;2022-07-29T02:43:56;96959.50;;;17.53;100.00
3668;BME280;24099;47.102;15.440;2022-07-29T02:46:31;96957.88;;;17.41;100.00
3668;BME280;24099;47.102;15.440;2022-07-29T02:49:15;96952.53;;;17.41;100.00
3668;BME280;24099;47.102;15.440;2022-07-29T02:51:46;96958.66;;;17.30;100.00
3668;BME280;24099;47.102;15.440;2022-07-29T02:54:24;96949.66;;;17.31;100.00
3668;BME280;24099;47.102;15.440;2022-07-29T02:56:54;96952.09;;;17.32;100.00
3668;BME280;24099;47.102;15.440;2022-07-29T02:59:26;96949.53;;;17.14;100.00
3668;BME280;24099;47.102;15.440;2022-07-29T03:01:58;96955.16;;;17.06;100.00
3668;BME280;24099;47.102;15.440;2022-07-29T03:04:27;96954.47;;;17.10;100.00
3668;BME280;24099;47.102;15.440;2022-07-29T03:06:59;96954.34;;;17.05;100.00
3668;BME280;24099;47.102;15.440;2022-07-29T03:09:27;96950.19;;;17.09;100.00
3668;BME280;24099;47.102;15.440;2022-07-29T03:11:57;96948.66;;;17.02;100.00
3668;BME280;24099;47.102;15.440;2022-07-29T03:14:24;96946.13;;;16.95;100.00
3668;BME280;24099;47.102;15.440;2022-07-29T03:16:53;96943.47;;;16.95;100.00
3668;BME280;24099;47.102;15.440;2022-07-29T03:19:22;96945.41;;;17.00;100.00
3668;BME280;24099;47.102;15.440;2022-07-29T03:21:50;96951.44;;;16.95;100.00
3668;BME280;24099;47.102;15.440;2022-07-29T03:24:30;96951.09;;;16.92;100.00
3668;BME280;24099;47.102;15.440;2022-07-29T03:26:58;96949.47;;;16.91;100.00
3668;BME280;24099;47.102;15.440;2022-07-29T03:29:26;96952.22;;;16.84;100.00
3668;BME280;24099;47.102;15.440;2022-07-29T03:31:54;96954.88;;;16.84;100.00
3668;BME280;24099;47.102;15.440;2022-07-29T03:34:23;96950.34;;;16.84;100.00
3668;BME280;24099;47.102;15.440;2022-07-29T03:36:50;96952.44;;;16.82;100.00
3668;BME280;24099;47.102;15.440;2022-07-29T03:39:23;96952.19;;;16.72;100.00
3668;BME280;24099;47.102;15.440;2022-07-29T03:41:55;96956.75;;;16.95;100.00
3668;BME280;24099;47.102;15.440;2022-07-29T03:44:24;96957.06;;;16.87;100.00
3668;BME280;24099;47.102;15.440;2022-07-29T03:46:55;96955.88;;;16.71;100.00
3668;BME280;24099;47.102;15.440;2022-07-29T03:49:26;96958.78;;;16.81;100.00
3668;BME280;24099;47.102;15.440;2022-07-29T03:51:55;96954.56;;;16.92;100.00
3668;BME280;24099;47.102;15.440;2022-07-29T03:54:22;96958.19;;;16.79;100.00
3668;BME280;24099;47.102;15.440;2022-07-29T03:56:50;96957.88;;;16.76;100.00
3668;BME280;24099;47.102;15.440;2022-07-29T03:59:20;96963.88;;;16.83;100.00
3668;BME280;24099;47.102;15.440;2022-07-29T04:01:49;96962.06;;;16.65;100.00
3668;BME280;24099;47.102;15.440;2022-07-29T04:04:17;96960.81;;;16.68;100.00
3668;BME280;24099;47.102;15.440;2022-07-29T04:06:46;96965.06;;;16.87;100.00
3668;BME280;24099;47.102;15.440;2022-07-29T04:09:14;96966.53;;;16.83;100.00
3668;BME280;24099;47.102;15.440;2022-07-29T04:11:42;96978.53;;;16.74;100.00
3668;BME280;24099;47.102;15.440;2022-07-29T04:14:10;96971.75;;;16.78;100.00
3668;BME280;24099;47.102;15.440;2022-07-29T04:16:38;96965.06;;;16.87;100.00
3668;BME280;24099;47.102;15.440;2022-07-29T04:19:05;96971.16;;;16.76;100.00
3668;BME280;24099;47.102;15.440;2022-07-29T04:21:38;96970.44;;;16.80;100.00
3668;BME280;24099;47.102;15.440;2022-07-29T04:24:07;96970.34;;;16.75;100.00
3668;BME280;24099;47.102;15.440;2022-07-29T04:26:35;96971.97;;;16.76;100.00
3668;BME280;24099;47.102;15.440;2022-07-29T04:29:02;96967.94;;;16.85;100.00
3668;BME280;24099;47.102;15.440;2022-07-29T04:31:30;96971.19;;;16.87;100.00
3668;BME280;24099;47.102;15.440;2022-07-29T04:33:57;96980.00;;;17.00;100.00
3668;BME280;24099;47.102;15.440;2022-07-29T04:36:25;96977.59;;;16.98;100.00
3668;BME280;24099;47.102;15.440;2022-07-29T04:38:52;96970.38;;;16.87;100.00
3668;BME280;24099;47.102;15.440;2022-07-29T04:41:21;96975.16;;;16.97;100.00
3668;BME280;24099;47.102;15.440;2022-07-29T04:43:49;96969.50;;;17.05;100.00
3668;BME280;24099;47.102;15.440;2022-07-29T04:46:16;96976.41;;;16.94;100.00
3668;BME280;24099;47.102;15.440;2022-07-29T04:48:45;96974.34;;;16.96;100.00
3668;BME280;24099;47.102;15.440;2022-07-29T04:51:13;96968.81;;;17.09;100.00
3668;BME280;24099;47.102;15.440;2022-07-29T04:53:42;96977.59;;;17.10;100.00
3668;BME280;24099;47.102;15.440;2022-07-29T04:56:10;96981.88;;;17.11;100.00
3668;BME280;24099;47.102;15.440;2022-07-29T04:58:39;96980.03;;;17.11;100.00
3668;BME280;24099;47.102;15.440;2022-07-29T05:01:06;96969.84;;;17.08;100.00
3668;BME280;24099;47.102;15.440;2022-07-29T05:03:34;96977.03;;;17.19;100.00
3668;BME280;24099;47.102;15.440;2022-07-29T05:06:01;96973.91;;;17.22;100.00
3668;BME280;24099;47.102;15.440;2022-07-29T05:08:29;96973.16;;;17.34;100.00
3668;BME280;24099;47.102;15.440;2022-07-29T05:10:56;96976.72;;;17.39;100.00
3668;BME280;24099;47.102;15.440;2022-07-29T05:13:24;96972.34;;;17.45;100.00
3668;BME280;24099;47.102;15.440;2022-07-29T05:15:53;96977.31;;;17.53;100.00
3668;BME280;24099;47.102;15.440;2022-07-29T05:18:20;96972.47;;;17.62;100.00
3668;BME280;24099;47.102;15.440;2022-07-29T05:20:48;96980.03;;;17.76;100.00
3668;BME280;24099;47.102;15.440;2022-07-29T05:23:16;96968.56;;;17.76;100.00
3668;BME280;24099;47.102;15.440;2022-07-29T05:25:43;96968.91;;;17.91;100.00
3668;BME280;24099;47.102;15.440;2022-07-29T05:28:10;96979.19;;;17.99;100.00
3668;BME280;24099;47.102;15.440;2022-07-29T05:30:38;96977.09;;;18.01;100.00
3668;BME280;24099;47.102;15.440;2022-07-29T05:33:07;96976.63;;;18.04;100.00
3668;BME280;24099;47.102;15.440;2022-07-29T05:35:35;96981.38;;;18.14;100.00
3668;BME280;24099;47.102;15.440;2022-07-29T05:38:03;96980.91;;;18.17;100.00
3668;BME280;24099;47.102;15.440;2022-07-29T05:40:31;96980.91;;;18.17;100.00
3668;BME280;24099;47.102;15.440;2022-07-29T05:42:58;96986.41;;;18.39;100.00
3668;BME280;24099;47.102;15.440;2022-07-29T05:45:26;96981.41;;;18.42;100.00
3668;BME280;24099;47.102;15.440;2022-07-29T05:47:53;96987.44;;;18.49;100.00
3668;BME280;24099;47.102;15.440;2022-07-29T05:50:22;96987.19;;;18.63;100.00
3668;BME280;24099;47.102;15.440;2022-07-29T05:52:50;96977.09;;;18.65;100.00
3668;BME280;24099;47.102;15.440;2022-07-29T05:55:18;96979.56;;;18.83;100.00
3668;BME280;24099;47.102;15.440;2022-07-29T05:57:45;96986.38;;;18.90;100.00
3668;BME280;24099;47.102;15.440;2022-07-29T06:00:14;96982.19;;;18.95;100.00
3668;BME280;24099;47.102;15.440;2022-07-29T06:02:42;96982.53;;;18.98;100.00
3668;BME280;24099;47.102;15.440;2022-07-29T06:05:10;96979.66;;;19.16;100.00
3668;BME280;24099;47.102;15.440;2022-07-29T06:07:39;96978.28;;;19.14;100.00
3668;BME280;24099;47.102;15.440;2022-07-29T06:10:07;96983.53;;;19.25;100.00
3668;BME280;24099;47.102;15.440;2022-07-29T06:12:35;96983.13;;;19.34;100.00
3668;BME280;24099;47.102;15.440;2022-07-29T06:15:05;96978.44;;;19.41;100.00
3668;BME280;24099;47.102;15.440;2022-07-29T06:17:32;96984.56;;;19.53;100.00
3668;BME280;24099;47.102;15.440;2022-07-29T06:20:00;96986.00;;;19.60;100.00
3668;BME280;24099;47.102;15.440;2022-07-29T06:22:27;96992.94;;;19.61;100.00
3668;BME280;24099;47.102;15.440;2022-07-29T06:24:56;96989.72;;;19.76;100.00
3668;BME280;24099;47.102;15.440;2022-07-29T06:27:23;96992.25;;;20.05;100.00
3668;BME280;24099;47.102;15.440;2022-07-29T06:29:51;96994.06;;;20.21;100.00
3668;BME280;24099;47.102;15.440;2022-07-29T06:32:18;96993.38;;;20.09;100.00
3668;BME280;24099;47.102;15.440;2022-07-29T06:34:47;96998.59;;;20.20;100.00
3668;BME280;24099;47.102;15.440;2022-07-29T06:37:15;96992.56;;;20.47;100.00
3668;BME280;24099;47.102;15.440;2022-07-29T06:39:43;96998.00;;;20.35;100.00
3668;BME280;24099;47.102;15.440;2022-07-29T06:42:12;96995.88;;;20.54;100.00
3668;BME280;24099;47.102;15.440;2022-07-29T06:44:41;96995.88;;;20.81;100.00
3668;BME280;24099;47.102;15.440;2022-07-29T06:47:08;96985.72;;;20.78;100.00
3668;BME280;24099;47.102;15.440;2022-07-29T06:49:36;96983.69;;;20.90;100.00
3668;BME280;24099;47.102;15.440;2022-07-29T06:52:04;96986.44;;;20.95;100.00
3668;BME280;24099;47.102;15.440;2022-07-29T06:54:32;96985.22;;;21.08;100.00
3668;BME280;24099;47.102;15.440;2022-07-29T06:56:59;96981.22;;;21.10;100.00
3668;BME280;24099;47.102;15.440;2022-07-29T06:59:28;96979.41;;;21.16;100.00
3668;BME280;24099;47.102;15.440;2022-07-29T07:01:55;96986.25;;;21.28;100.00
3668;BME280;24099;47.102;15.440;2022-07-29T07:04:23;96989.53;;;21.73;100.00
3668;BME280;24099;47.102;15.440;2022-07-29T07:06:51;96989.41;;;21.94;100.00
3668;BME280;24099;47.102;15.440;2022-07-29T07:09:18;96993.06;;;22.15;100.00
3668;BME280;24099;47.102;15.440;2022-07-29T07:11:46;96997.41;;;22.26;100.00
3668;BME280;24099;47.102;15.440;2022-07-29T07:14:13;96998.69;;;22.19;100.00
3668;BME280;24099;47.102;15.440;2022-07-29T07:16:43;96993.72;;;22.38;100.00
3668;BME280;24099;47.102;15.440;2022-07-29T07:19:11;96989.25;;;22.63;100.00
3668;BME280;24099;47.102;15.440;2022-07-29T07:21:38;96993.00;;;22.57;100.00
3668;BME280;24099;47.102;15.440;2022-07-29T07:24:06;96996.28;;;22.80;100.00
3668;BME280;24099;47.102;15.440;2022-07-29T07:26:34;96992.19;;;22.57;100.00
3668;BME280;24099;47.102;15.440;2022-07-29T07:29:01;96991.44;;;22.77;100.00
3668;BME280;24099;47.102;15.440;2022-07-29T07:31:29;96988.31;;;23.20;100.00
3668;BME280;24099;47.102;15.440;2022-07-29T07:33:58;96999.06;;;23.20;100.00
3668;BME280;24099;47.102;15.440;2022-07-29T07:36:25;96997.22;;;23.16;100.00
3668;BME280;24099;47.102;15.440;2022-07-29T07:38:52;96990.47;;;23.23;100.00
3668;BME280;24099;47.102;15.440;2022-07-29T07:41:20;96994.81;;;23.45;100.00
3668;BME280;24099;47.102;15.440;2022-07-29T07:43:48;96997.53;;;23.75;100.00
3668;BME280;24099;47.102;15.440;2022-07-29T07:46:15;96998.34;;;23.70;100.00
3668;BME280;24099;47.102;15.440;2022-07-29T07:48:43;96998.88;;;23.62;100.00
3668;BME280;24099;47.102;15.440;2022-07-29T07:51:15;96992.41;;;23.79;100.00
3668;BME280;24099;47.102;15.440;2022-07-29T07:53:42;96996.13;;;24.08;100.00
3668;BME280;24099;47.102;15.440;2022-07-29T07:56:10;97002.31;;;24.03;100.00
3668;BME280;24099;47.102;15.440;2022-07-29T07:58:38;97002.81;;;24.21;100.00
3668;BME280;24099;47.102;15.440;2022-07-29T08:01:09;96993.41;;;24.33;100.00
3668;BME280;24099;47.102;15.440;2022-07-29T08:03:36;97000.59;;;24.53;100.00
3668;BME280;24099;47.102;15.440;2022-07-29T08:06:05;96994.97;;;24.50;100.00
3668;BME280;24099;47.102;15.440;2022-07-29T08:08:34;96991.41;;;24.59;100.00
3668;BME280;24099;47.102;15.440;2022-07-29T08:11:02;96994.50;;;24.92;100.00
3668;BME280;24099;47.102;15.440;2022-07-29T08:13:29;96991.59;;;24.78;100.00
3668;BME280;24099;47.102;15.440;2022-07-29T08:15:59;96992.41;;;24.79;100.00
3668;BME280;24099;47.102;15.440;2022-07-29T08:18:29;97003.41;;;24.82;100.00
3668;BME280;24099;47.102;15.440;2022-07-29T08:20:57;97003.47;;;24.77;100.00
3668;BME280;24099;47.102;15.440;2022-07-29T08:23:26;97011.22;;;24.84;100.00
3668;BME280;24099;47.102;15.440;2022-07-29T08:26:02;97006.31;;;25.01;100.00
3668;BME280;24099;47.102;15.440;2022-07-29T08:28:30;97001.34;;;25.18;100.00
3668;BME280;24099;47.102;15.440;2022-07-29T08:30:57;97004.84;;;25.24;100.00
3668;BME280;24099;47.102;15.440;2022-07-29T08:33:25;97006.19;;;25.21;100.00
3668;BME280;24099;47.102;15.440;2022-07-29T08:35:52;97007.66;;;25.42;100.00
3668;BME280;24099;47.102;15.440;2022-07-29T08:38:20;97009.13;;;25.69;100.00
3668;BME280;24099;47.102;15.440;2022-07-29T08:40:48;97010.59;;;25.85;100.00
3668;BME280;24099;47.102;15.440;2022-07-29T08:43:17;97010.06;;;25.83;100.00
3668;BME280;24099;47.102;15.440;2022-07-29T08:45:47;97007.75;;;26.00;100.00
3668;BME280;24099;47.102;15.440;2022-07-29T08:48:18;97014.75;;;26.01;100.00
3668;BME280;24099;47.102;15.440;2022-07-29T08:50:47;97013.56;;;26.13;100.00
3668;BME280;24099;47.102;15.440;2022-07-29T08:53:17;97015.91;;;26.48;100.00
3668;BME280;24099;47.102;15.440;2022-07-29T08:55:48;97024.88;;;26.67;100.00
3668;BME280;24099;47.102;15.440;2022-07-29T08:58:18;97026.13;;;26.22;95.10
3668;BME280;24099;47.102;15.440;2022-07-29T09:00:49;97018.28;;;26.31;100.00
3668;BME280;24099;47.102;15.440;2022-07-29T09:03:20;97018.22;;;26.36;100.00
3668;BME280;24099;47.102;15.440;2022-07-29T09:05:49;97020.84;;;26.41;98.50
3668;BME280;24099;47.102;15.440;2022-07-29T09:08:17;97024.47;;;26.31;98.76
3668;BME280;24099;47.102;15.440;2022-07-29T09:10:46;97026.94;;;26.23;100.00
3668;BME280;24099;47.102;15.440;2022-07-29T09:13:18;97027.63;;;26.09;100.00
3668;BME280;24099;47.102;15.440;2022-07-29T09:15:45;97023.06;;;26.05;97.73
3668;BME280;24099;47.102;15.440;2022-07-29T09:18:33;97028.03;;;25.98;100.00
3668;BME280;24099;47.102;15.440;2022-07-29T09:21:04;97030.09;;;26.06;100.00
3668;BME280;24099;47.102;15.440;2022-07-29T09:24:05;97029.03;;;26.02;98.61
3668;BME280;24099;47.102;15.440;2022-07-29T09:26:36;97023.41;;;25.98;100.00
3668;BME280;24099;47.102;15.440;2022-07-29T09:29:14;97028.72;;;26.08;100.00
3668;BME280;24099;47.102;15.440;2022-07-29T09:31:44;97025.31;;;25.98;100.00
3668;BME280;24099;47.102;15.440;2022-07-29T09:34:21;97028.78;;;25.98;100.00
3668;BME280;24099;47.102;15.440;2022-07-29T09:36:52;97034.19;;;25.98;100.00
3668;BME280;24099;47.102;15.440;2022-07-29T09:39:32;97028.59;;;25.95;100.00
3668;BME280;24099;47.102;15.440;2022-07-29T09:42:02;97032.53;;;26.02;100.00
3668;BME280;24099;47.102;15.440;2022-07-29T09:44:47;97032.69;;;26.16;100.00
3668;BME280;24099;47.102;15.440;2022-07-29T09:47:16;97042.72;;;26.11;100.00
3668;BME280;24099;47.102;15.440;2022-07-29T09:49:56;97026.72;;;26.19;100.00
3668;BME280;24099;47.102;15.440;2022-07-29T09:52:25;97023.00;;;26.15;100.00
3668;BME280;24099;47.102;15.440;2022-07-29T09:54:55;97023.91;;;26.34;100.00
3668;BME280;24099;47.102;15.440;2022-07-29T09:57:31;97027.03;;;26.41;100.00
3668;BME280;24099;47.102;15.440;2022-07-29T10:00:03;97031.63;;;26.41;100.00
3668;BME280;24099;47.102;15.440;2022-07-29T10:02:39;97025.66;;;26.44;96.68
3668;BME280;24099;47.102;15.440;2022-07-29T10:05:21;97031.06;;;26.68;100.00
3668;BME280;24099;47.102;15.440;2022-07-29T10:07:52;97031.59;;;26.70;100.00
3668;BME280;24099;47.102;15.440;2022-07-29T10:10:22;97033.81;;;26.87;100.00
3668;BME280;24099;47.102;15.440;2022-07-29T10:12:53;97026.19;;;26.46;89.83
3668;BME280;24099;47.102;15.440;2022-07-29T10:15:24;97025.63;;;26.49;97.52
3668;BME280;24099;47.102;15.440;2022-07-29T10:17:55;97029.41;;;26.48;95.32
3668;BME280;24099;47.102;15.440;2022-07-29T10:20:24;97034.19;;;26.56;100.00
3668;BME280;24099;47.102;15.440;2022-07-29T10:22:52;97025.22;;;26.37;96.36
3668;BME280;24099;47.102;15.440;2022-07-29T10:25:23;97027.59;;;26.15;99.23
3668;BME280;24099;47.102;15.440;2022-07-29T10:27:52;97021.13;;;26.11;100.00
3668;BME280;24099;47.102;15.440;2022-07-29T10:30:24;97026.16;;;25.93;100.00
3668;BME280;24099;47.102;15.440;2022-07-29T10:33:08;97021.41;;;25.80;100.00
3668;BME280;24099;47.102;15.440;2022-07-29T10:36:04;97020.28;;;25.86;100.00
3668;BME280;24099;47.102;15.440;2022-07-29T10:38:47;97025.19;;;25.40;100.00
3668;BME280;24099;47.102;15.440;2022-07-29T10:41:46;97014.66;;;25.44;100.00
3668;BME280;24099;47.102;15.440;2022-07-29T10:44:18;97017.31;;;25.49;100.00
3668;BME280;24099;47.102;15.440;2022-07-29T10:46:48;97022.78;;;25.38;100.00
3668;BME280;24099;47.102;15.440;2022-07-29T10:49:18;97011.16;;;25.43;100.00
3668;BME280;24099;47.102;15.440;2022-07-29T10:52:00;97013.41;;;25.31;100.00
3668;BME280;24099;47.102;15.440;2022-07-29T10:54:47;97006.44;;;25.59;100.00
3668;BME280;24099;47.102;15.440;2022-07-29T10:57:26;97010.81;;;25.55;100.00
3668;BME280;24099;47.102;15.440;2022-07-29T11:00:27;97004.84;;;25.63;100.00
3668;BME280;24099;47.102;15.440;2022-07-29T11:02:57;97002.00;;;25.78;100.00
3668;BME280;24099;47.102;15.440;2022-07-29T11:05:25;96995.53;;;26.08;100.00
3668;BME280;24099;47.102;15.440;2022-07-29T11:08:22;96994.31;;;26.19;100.00
3668;BME280;24099;47.102;15.440;2022-07-29T11:13:51;96994.78;;;26.55;100.00
3668;BME280;24099;47.102;15.440;2022-07-29T11:16:24;96994.09;;;26.45;93.35
3668;BME280;24099;47.102;15.440;2022-07-29T11:19:21;96995.78;;;26.59;94.12
3668;BME280;24099;47.102;15.440;2022-07-29T11:21:49;96988.91;;;26.72;96.64
3668;BME280;24099;47.102;15.440;2022-07-29T11:24:21;96988.50;;;26.60;87.86
3668;BME280;24099;47.102;15.440;2022-07-29T11:27:14;96986.25;;;26.67;100.00
3668;BME280;24099;47.102;15.440;2022-07-29T11:29:54;96985.63;;;26.94;87.08
3668;BME280;24099;47.102;15.440;2022-07-29T11:32:24;96967.63;;;27.08;91.86
3668;BME280;24099;47.102;15.440;2022-07-29T11:35:15;96981.72;;;27.24;83.99
3668;BME280;24099;47.102;15.440;2022-07-29T11:37:45;96977.63;;;27.26;80.60
3668;BME280;24099;47.102;15.440;2022-07-29T11:40:17;96979.34;;;27.55;85.53
3668;BME280;24099;47.102;15.440;2022-07-29T11:42:50;96973.28;;;27.44;80.34
3668;BME280;24099;47.102;15.440;2022-07-29T11:45:23;96984.47;;;27.56;86.44
3668;BME280;24099;47.102;15.440;2022-07-29T11:47:56;96979.06;;;27.89;78.71
3668;BME280;24099;47.102;15.440;2022-07-29T11:50:36;96976.28;;;27.94;81.92
3668;BME280;24099;47.102;15.440;2022-07-29T11:53:11;96979.13;;;27.70;86.50
3668;BME280;24099;47.102;15.440;2022-07-29T11:55:40;96988.06;;;27.33;84.70
3668;BME280;24099;47.102;15.440;2022-07-29T11:58:09;96981.25;;;27.54;89.58
3668;BME280;24099;47.102;15.440;2022-07-29T12:00:41;96987.28;;;27.32;88.73
3668;BME280;24099;47.102;15.440;2022-07-29T12:03:11;96985.91;;;27.16;85.90
3668;BME280;24099;47.102;15.440;2022-07-29T12:05:44;96988.72;;;27.06;89.73
3668;BME280;24099;47.102;15.440;2022-07-29T12:08:14;96985.44;;;27.28;88.79
3668;BME280;24099;47.102;15.440;2022-07-29T12:10:43;96975.88;;;27.35;91.96
3668;BME280;24099;47.102;15.440;2022-07-29T12:13:12;96983.09;;;27.21;87.96
3668;BME280;24099;47.102;15.440;2022-07-29T12:15:40;96980.84;;;27.28;89.88
3668;BME280;24099;47.102;15.440;2022-07-29T12:18:12;96978.97;;;26.86;89.94
3668;BME280;24099;47.102;15.440;2022-07-29T12:20:42;96983.47;;;26.96;98.60
3668;BME280;24099;47.102;15.440;2022-07-29T12:23:10;96978.63;;;26.74;90.67
3668;BME280;24099;47.102;15.440;2022-07-29T12:25:41;96973.78;;;26.71;100.00
3668;BME280;24099;47.102;15.440;2022-07-29T12:28:11;96972.09;;;26.56;100.00
3668;BME280;24099;47.102;15.440;2022-07-29T12:30:43;96973.44;;;26.77;100.00
3668;BME280;24099;47.102;15.440;2022-07-29T12:33:19;96967.59;;;26.89;100.00
3668;BME280;24099;47.102;15.440;2022-07-29T12:35:52;96972.81;;;26.38;100.00
3668;BME280;24099;47.102;15.440;2022-07-29T12:38:21;96974.44;;;26.39;100.00
3668;BME280;24099;47.102;15.440;2022-07-29T12:40:53;96972.47;;;26.68;100.00
3668;BME280;24099;47.102;15.440;2022-07-29T12:43:22;96976.00;;;26.45;100.00
3668;BME280;24099;47.102;15.440;2022-07-29T12:45:52;96975.09;;;26.26;100.00
3668;BME280;24099;47.102;15.440;2022-07-29T12:48:33;96967.41;;;26.62;100.00
3668;BME280;24099;47.102;15.440;2022-07-29T12:51:05;96969.81;;;26.63;100.00
3668;BME280;24099;47.102;15.440;2022-07-29T12:53:34;96969.56;;;26.84;100.00
3668;BME280;24099;47.102;15.440;2022-07-29T12:56:03;96968.22;;;27.05;91.95
3668;BME280;24099;47.102;15.440;2022-07-29T12:58:38;96970.84;;;27.10;99.48
3668;BME280;24099;47.102;15.440;2022-07-29T13:01:09;96963.19;;;27.17;89.07
3668;BME280;24099;47.102;15.440;2022-07-29T13:03:52;96958.88;;;27.16;87.08
3668;BME280;24099;47.102;15.440;2022-07-29T13:06:42;96956.25;;;27.11;100.00
3668;BME280;24099;47.102;15.440;2022-07-29T13:09:12;96955.75;;;26.85;100.00
3668;BME280;24099;47.102;15.440;2022-07-29T13:11:42;96950.72;;;26.78;97.13
3668;BME280;24099;47.102;15.440;2022-07-29T13:14:12;96959.47;;;26.70;100.00